createdAt,value
2023-04-23T00:01:12.347Z,3.97
2023-04-23T00:04:00.499Z,4.20
2023-04-23T00:06:48.199Z,4.20
2023-04-23T00:09:36.311Z,4.40
2023-04-23T00:12:23.967Z,4.77
2023-04-23T00:15:12.220Z,4.10
2023-04-23T00:17:59.656Z,4.40
2023-04-23T00:20:47.042Z,4.45
2023-04-23T00:23:34.508Z,3.90
2023-04-23T00:26:21.859Z,4.28
2023-04-23T00:29:09.246Z,4.13
2023-04-23T00:31:56.689Z,5.07
2023-04-23T00:34:44.301Z,4.73
2023-04-23T00:37:31.686Z,4.17
2023-04-23T00:40:20.434Z,4.27
2023-04-23T00:43:09.603Z,4.73
2023-04-23T00:45:57.309Z,4.10
2023-04-23T00:48:46.124Z,4.47
2023-04-23T00:51:33.458Z,5.00
2023-04-23T00:54:22.013Z,4.77
2023-04-23T00:57:09.697Z,5.10
2023-04-23T00:59:58.400Z,4.53
2023-04-23T01:02:47.418Z,4.53
2023-04-23T01:05:34.936Z,4.37
2023-04-23T01:08:23.990Z,4.90
2023-04-23T01:11:11.800Z,4.80
2023-04-23T01:13:59.829Z,5.07
2023-04-23T01:16:47.590Z,4.90
2023-04-23T01:19:35.332Z,4.90
2023-04-23T01:22:22.968Z,5.20
2023-04-23T01:25:10.554Z,4.90
2023-04-23T01:27:58.764Z,5.60
2023-04-23T01:30:46.193Z,5.93
2023-04-23T01:33:34.192Z,5.53
2023-04-23T01:36:22.955Z,6.30
2023-04-23T01:39:10.331Z,6.30
2023-04-23T01:41:58.370Z,6.80
2023-04-23T01:44:45.758Z,7.17
2023-04-23T01:47:33.196Z,6.80
2023-04-23T01:50:23.237Z,6.30
2023-04-23T01:53:11.009Z,6.80
2023-04-23T01:55:58.635Z,6.67
2023-04-23T01:58:45.989Z,7.53
2023-04-23T02:01:44.141Z,8.30
2023-04-23T02:04:31.742Z,8.13
2023-04-23T02:07:19.336Z,7.93
2023-04-23T02:10:07.885Z,8.50
2023-04-23T02:12:55.403Z,8.70
2023-04-23T02:15:43.213Z,9.03
2023-04-23T02:18:30.710Z,9.67
2023-04-23T02:21:18.252Z,8.33
2023-04-23T02:24:06.029Z,9.03
2023-04-23T02:26:53.433Z,8.63
2023-04-23T02:29:41.158Z,9.30
2023-04-23T02:32:29.158Z,9.77
2023-04-23T02:35:16.540Z,9.87
2023-04-23T02:38:04.608Z,10.23
2023-04-23T02:40:52.026Z,9.97
2023-04-23T02:43:39.405Z,10.43
2023-04-23T02:46:26.850Z,12.07
2023-04-23T02:49:14.647Z,11.10
2023-04-23T02:52:02.034Z,12.50
2023-04-23T02:54:49.415Z,11.70
2023-04-23T02:57:36.990Z,12.23
2023-04-23T03:00:24.532Z,12.87
2023-04-23T03:03:12.758Z,13.07
2023-04-23T03:06:01.373Z,13.53
2023-04-23T03:08:48.706Z,14.67
2023-04-23T03:11:36.120Z,17.83
2023-04-23T03:14:23.450Z,20.27
2023-04-23T03:17:11.101Z,20.37
2023-04-23T03:19:58.458Z,21.70
2023-04-23T03:22:45.967Z,21.70
2023-04-23T03:25:33.869Z,22.40
2023-04-23T03:28:21.325Z,21.73
2023-04-23T03:31:08.759Z,22.60
2023-04-23T03:33:56.157Z,24.00
2023-04-23T03:36:44.649Z,22.43
2023-04-23T03:39:32.001Z,22.00
2023-04-23T03:42:19.399Z,21.80
2023-04-23T03:45:07.255Z,20.93
2023-04-23T03:47:54.658Z,20.37
2023-04-23T03:50:42.108Z,21.07
2023-04-23T03:53:29.448Z,20.20
2023-04-23T03:56:16.848Z,19.70
2023-04-23T03:59:04.210Z,18.50
2023-04-23T04:01:51.533Z,20.67
2023-04-23T04:04:39.155Z,19.43
2023-04-23T04:07:26.935Z,20.93
2023-04-23T04:10:14.310Z,20.97
2023-04-23T04:13:01.941Z,22.77
2023-04-23T04:15:49.267Z,22.80
2023-04-23T04:18:36.637Z,22.57
2023-04-23T04:21:24.008Z,24.30
2023-04-23T04:24:11.468Z,23.93
2023-04-23T04:26:59.979Z,24.13
2023-04-23T04:29:48.317Z,24.00
2023-04-23T04:32:35.815Z,23.33
2023-04-23T04:35:23.288Z,24.03
2023-04-23T04:38:11.286Z,23.10
2023-04-23T04:41:02.412Z,23.33
2023-04-23T04:43:49.736Z,23.43
2023-04-23T04:46:40.532Z,25.53
2023-04-23T04:49:28.029Z,25.63
2023-04-23T04:52:15.403Z,26.20
2023-04-23T04:55:02.784Z,25.77
2023-04-23T04:57:50.185Z,27.87
2023-04-23T05:00:37.875Z,27.83
2023-04-23T05:03:26.140Z,28.33
2023-04-23T05:06:13.662Z,22.27
2023-04-23T05:09:01.108Z,20.67
2023-04-23T05:11:48.508Z,22.03
2023-04-23T05:14:35.929Z,18.00
2023-04-23T05:17:23.314Z,15.13
2023-04-23T05:20:11.162Z,15.23
2023-04-23T05:23:02.698Z,14.20
2023-04-23T05:25:53.751Z,12.90
2023-04-23T05:28:41.622Z,12.80
2023-04-23T05:31:29.583Z,12.43
2023-04-23T05:34:16.958Z,11.57
2023-04-23T05:37:04.334Z,11.60
2023-04-23T05:39:51.710Z,10.50
2023-04-23T05:42:39.127Z,8.90
2023-04-23T05:45:26.546Z,8.87
2023-04-23T05:48:14.114Z,9.10
2023-04-23T05:51:01.768Z,8.27
2023-04-23T05:53:49.133Z,8.30
2023-04-23T05:56:37.082Z,7.60
2023-04-23T05:59:24.427Z,7.07
2023-04-23T06:02:12.097Z,6.87
2023-04-23T06:04:59.768Z,6.70
2023-04-23T06:07:47.274Z,5.37
2023-04-23T06:10:34.619Z,5.40
2023-04-23T06:13:22.021Z,5.53
2023-04-23T06:16:09.356Z,5.67
2023-04-23T06:18:56.798Z,6.63
2023-04-23T06:21:44.158Z,7.00
2023-04-23T06:24:31.696Z,6.93
2023-04-23T06:27:19.061Z,8.03
2023-04-23T06:30:06.765Z,7.23
2023-04-23T06:32:54.200Z,6.70
2023-04-23T06:35:41.708Z,7.33
2023-04-23T06:38:29.042Z,6.87
2023-04-23T06:41:16.451Z,6.63
2023-04-23T06:44:03.876Z,6.07
2023-04-23T06:46:51.347Z,6.10
2023-04-23T06:49:40.733Z,5.93
2023-04-23T06:52:28.213Z,5.40
2023-04-23T06:55:15.766Z,5.00
2023-04-23T06:58:03.412Z,4.63
2023-04-23T07:00:50.821Z,4.97
2023-04-23T07:03:38.235Z,4.80
2023-04-23T07:06:25.623Z,5.23
2023-04-23T07:09:12.990Z,5.50
2023-04-23T07:12:01.910Z,4.83
2023-04-23T07:14:49.298Z,5.27
2023-04-23T07:17:36.684Z,5.60
2023-04-23T07:20:24.125Z,5.70
2023-04-23T07:23:11.706Z,5.50
2023-04-23T07:25:59.145Z,5.23
2023-04-23T07:28:48.617Z,5.70
2023-04-23T07:31:37.331Z,5.87
2023-04-23T07:34:24.772Z,5.87
2023-04-23T07:37:12.100Z,6.27
2023-04-23T07:40:00.735Z,5.73
2023-04-23T07:42:48.123Z,5.53
2023-04-23T07:45:35.492Z,5.17
2023-04-23T07:48:22.856Z,5.80
2023-04-23T07:51:10.260Z,5.40
2023-04-23T07:53:58.300Z,5.63
2023-04-23T07:56:45.630Z,5.10
2023-04-23T07:59:33.005Z,5.90
2023-04-23T08:02:23.793Z,4.73
2023-04-23T08:05:11.458Z,4.80
2023-04-23T08:07:59.126Z,4.80
2023-04-23T08:10:46.920Z,5.40
2023-04-23T08:13:34.516Z,4.90
2023-04-23T08:16:21.937Z,4.73
2023-04-23T08:19:09.353Z,5.00
2023-04-23T08:21:56.692Z,5.40
2023-04-23T08:24:45.124Z,4.87
2023-04-23T08:27:33.654Z,4.70
2023-04-23T08:30:21.260Z,4.80
2023-04-23T08:33:08.700Z,4.80
2023-04-23T08:35:56.122Z,4.87
2023-04-23T08:38:43.488Z,4.73
2023-04-23T08:41:34.879Z,3.87
2023-04-23T08:44:26.262Z,4.47
2023-04-23T08:47:17.382Z,4.70
2023-04-23T08:50:05.396Z,4.60
2023-04-23T08:52:56.526Z,4.50
2023-04-23T08:55:44.287Z,5.00
2023-04-23T08:58:31.977Z,4.83
2023-04-23T09:01:19.755Z,5.17
2023-04-23T09:04:08.568Z,4.80
2023-04-23T09:06:56.930Z,5.23
2023-04-23T09:09:45.147Z,4.80
2023-04-23T09:12:33.244Z,5.13
2023-04-23T09:15:20.655Z,4.57
2023-04-23T09:18:08.332Z,4.90
2023-04-23T09:20:55.758Z,4.60
2023-04-23T09:23:43.952Z,4.90
2023-04-23T09:26:31.453Z,4.70
2023-04-23T09:29:23.465Z,4.87
2023-04-23T09:32:11.050Z,5.20
2023-04-23T09:34:58.429Z,5.33
2023-04-23T09:37:48.643Z,5.17
2023-04-23T09:40:37.791Z,5.90
2023-04-23T09:43:25.160Z,5.20
2023-04-23T09:46:12.558Z,4.93
2023-04-23T09:49:01.081Z,5.10
2023-04-23T09:51:48.964Z,5.13
2023-04-23T09:54:36.399Z,5.22
2023-04-23T09:57:25.199Z,5.40
2023-04-23T10:00:17.114Z,5.20
2023-04-23T10:03:05.556Z,5.05
2023-04-23T10:06:01.814Z,5.87
2023-04-23T10:08:50.108Z,5.55
2023-04-23T10:11:37.665Z,6.05
2023-04-23T10:14:25.795Z,5.93
2023-04-23T10:17:13.322Z,5.68
2023-04-23T10:20:04.081Z,5.72
2023-04-23T10:22:52.800Z,5.35
2023-04-23T10:25:41.324Z,5.70
2023-04-23T10:28:31.958Z,5.13
2023-04-23T10:31:21.168Z,5.53
2023-04-23T10:34:10.457Z,5.97
2023-04-23T10:37:01.753Z,6.22
2023-04-23T10:39:55.984Z,6.20
2023-04-23T10:42:47.328Z,6.03
2023-04-23T10:45:34.711Z,5.45
2023-04-23T10:48:22.143Z,6.15
2023-04-23T10:51:24.929Z,6.32
2023-04-23T10:54:17.416Z,6.28
2023-04-23T10:57:05.874Z,5.57
2023-04-23T10:59:54.519Z,5.55
2023-04-23T11:02:45.302Z,6.15
2023-04-23T11:05:35.729Z,6.53
2023-04-23T11:08:23.119Z,6.93
2023-04-23T11:11:10.545Z,5.95
2023-04-23T11:13:59.118Z,5.47
2023-04-23T11:16:49.413Z,6.15
2023-04-23T11:19:37.268Z,6.07
2023-04-23T11:22:24.844Z,5.88
2023-04-23T11:25:13.470Z,5.35
2023-04-23T11:28:02.429Z,6.25
2023-04-23T11:30:51.627Z,5.85
2023-04-23T11:33:39.394Z,5.57
2023-04-23T11:36:28.235Z,5.32
2023-04-23T11:39:15.842Z,5.90
2023-04-23T11:42:06.615Z,5.65
2023-04-23T11:44:54.152Z,5.95
2023-04-23T11:47:41.761Z,5.93
2023-04-23T11:50:33.695Z,5.25
2023-04-23T11:53:23.693Z,5.68
2023-04-23T11:56:11.402Z,5.10
2023-04-23T11:59:00.094Z,5.45
2023-04-23T12:01:48.755Z,5.63
2023-04-23T12:04:37.007Z,5.80
2023-04-23T12:07:32.905Z,5.20
2023-04-23T12:10:21.291Z,5.20
2023-04-23T12:13:13.759Z,5.90
2023-04-23T12:16:02.166Z,5.70
2023-04-23T12:18:54.448Z,5.30
2023-04-23T12:21:48.959Z,4.85
2023-04-23T12:24:51.443Z,5.32
2023-04-23T12:27:44.506Z,5.53
2023-04-23T12:30:32.468Z,5.35
2023-04-23T12:33:21.330Z,5.60
2023-04-23T12:36:11.774Z,5.22
2023-04-23T12:39:18.109Z,5.30
2023-04-23T12:42:06.604Z,5.10
2023-04-23T12:44:56.189Z,5.93
2023-04-23T12:47:43.641Z,5.07
2023-04-23T12:50:31.053Z,5.32
2023-04-23T12:53:18.947Z,5.97
2023-04-23T12:56:06.403Z,5.88
2023-04-23T12:58:53.817Z,5.68
2023-04-23T13:01:41.685Z,5.85
2023-04-23T13:04:34.691Z,5.75
2023-04-23T13:07:22.337Z,4.95
2023-04-23T13:10:10.381Z,5.45
2023-04-23T13:12:57.756Z,5.65
2023-04-23T13:15:45.184Z,4.95
2023-04-23T13:18:32.572Z,4.85
2023-04-23T13:21:20.230Z,6.15
2023-04-23T13:24:07.646Z,4.57
2023-04-23T13:26:56.866Z,5.35
2023-04-23T13:29:44.530Z,5.32
2023-04-23T13:32:32.596Z,5.20
2023-04-23T13:35:20.021Z,4.90
2023-04-23T13:38:07.440Z,4.85
2023-04-23T13:40:54.839Z,4.22
2023-04-23T13:43:42.287Z,4.82
2023-04-23T13:46:30.030Z,4.63
2023-04-23T13:49:18.636Z,4.63
2023-04-23T13:52:06.791Z,4.05
2023-04-23T13:54:56.991Z,4.20
2023-04-23T13:57:44.363Z,4.22
2023-04-23T14:00:31.930Z,4.68
2023-04-23T14:03:20.286Z,4.78
2023-04-23T14:06:07.787Z,4.68
2023-04-23T14:08:55.162Z,4.38
2023-04-23T14:11:42.596Z,4.90
2023-04-23T14:14:30.068Z,4.68
2023-04-23T14:17:17.391Z,4.50
2023-04-23T14:20:05.697Z,4.63
2023-04-23T14:22:57.377Z,4.63
2023-04-23T14:25:47.704Z,4.32
2023-04-23T14:28:45.380Z,4.05
2023-04-23T14:31:33.849Z,4.38
2023-04-23T14:34:21.454Z,4.60
2023-04-23T14:37:08.865Z,4.30
2023-04-23T14:39:56.318Z,3.97
2023-04-23T14:42:45.489Z,3.83
2023-04-23T14:45:33.270Z,4.30
2023-04-23T14:48:20.609Z,4.25
2023-04-23T14:51:08.009Z,4.43
2023-04-23T14:53:56.701Z,4.03
2023-04-23T14:56:44.344Z,3.40
2023-04-23T14:59:31.720Z,3.60
2023-04-23T15:02:19.099Z,3.20
2023-04-23T15:05:07.758Z,3.42
2023-04-23T15:07:55.123Z,2.97
2023-04-23T15:10:44.151Z,3.15
2023-04-23T15:13:37.766Z,3.30
2023-04-23T15:16:40.522Z,3.33
2023-04-23T15:19:34.577Z,3.35
2023-04-23T15:22:21.940Z,3.20
2023-04-23T15:25:09.358Z,3.65
2023-04-23T15:27:57.779Z,3.40
2023-04-23T15:30:45.409Z,3.95
2023-04-23T15:33:32.980Z,3.92
2023-04-23T15:36:20.380Z,3.50
2023-04-23T15:39:09.042Z,3.33
2023-04-23T15:41:58.082Z,3.00
2023-04-23T15:44:48.881Z,3.22
2023-04-23T15:47:36.678Z,3.75
2023-04-23T15:50:26.576Z,3.30
2023-04-23T15:53:14.237Z,3.53
2023-04-23T15:56:01.614Z,3.85
2023-04-23T15:58:49.995Z,3.53
2023-04-23T16:01:37.408Z,3.50
2023-04-23T16:04:25.046Z,4.00
2023-04-23T16:07:12.554Z,4.00
2023-04-23T16:09:59.885Z,3.78
2023-04-23T16:12:48.526Z,3.67
2023-04-23T16:15:35.911Z,3.80
2023-04-23T16:18:23.353Z,3.67
2023-04-23T16:21:10.841Z,3.72
2023-04-23T16:23:58.248Z,3.78
2023-04-23T16:26:45.787Z,3.70
2023-04-23T16:29:33.260Z,3.80
2023-04-23T16:32:20.792Z,4.55
2023-04-23T16:35:08.577Z,5.88
2023-04-23T16:37:56.051Z,4.18
2023-04-23T16:40:47.015Z,4.40
2023-04-23T16:43:34.440Z,4.30
2023-04-23T16:46:21.897Z,3.72
2023-04-23T16:49:09.269Z,3.80
2023-04-23T16:51:56.572Z,3.58
2023-04-23T16:54:44.326Z,4.00
2023-04-23T16:57:32.094Z,3.88
2023-04-23T17:00:19.884Z,4.10
2023-04-23T17:03:07.354Z,4.17
2023-04-23T17:06:09.730Z,4.10
2023-04-23T17:08:57.810Z,3.83
2023-04-23T17:11:45.179Z,3.83
2023-04-23T17:14:32.610Z,3.77
2023-04-23T17:17:20.474Z,3.70
2023-04-23T17:20:09.005Z,3.87
2023-04-23T17:22:56.455Z,3.63
2023-04-23T17:25:43.848Z,4.10
2023-04-23T17:28:31.264Z,4.63
2023-04-23T17:31:18.761Z,4.27
2023-04-23T17:34:06.180Z,4.43
2023-04-23T17:36:53.590Z,3.87
2023-04-23T17:39:40.978Z,4.17
2023-04-23T17:42:28.338Z,4.03
2023-04-23T17:45:15.721Z,4.00
2023-04-23T17:48:03.873Z,7.70
2023-04-23T17:50:51.464Z,11.27
2023-04-23T17:53:38.839Z,5.53
2023-04-23T17:56:27.143Z,4.03
2023-04-23T17:59:15.730Z,3.90
2023-04-23T18:02:04.188Z,4.63
2023-04-23T18:04:51.930Z,4.20
2023-04-23T18:07:39.914Z,4.70
2023-04-23T18:10:28.325Z,4.73
2023-04-23T18:13:15.811Z,4.70
2023-04-23T18:16:03.193Z,4.57
2023-04-23T18:18:50.635Z,4.47
2023-04-23T18:21:38.096Z,4.23
2023-04-23T18:24:25.537Z,4.50
2023-04-23T18:27:12.921Z,4.30
2023-04-23T18:30:00.784Z,4.77
2023-04-23T18:32:48.848Z,4.27
2023-04-23T18:35:36.452Z,4.23
2023-04-23T18:38:25.326Z,4.50
2023-04-23T18:41:12.737Z,5.27
2023-04-23T18:44:00.330Z,5.67
2023-04-23T18:46:47.940Z,4.50
2023-04-23T18:49:38.546Z,5.27
2023-04-23T18:52:25.954Z,5.17
2023-04-23T18:55:13.318Z,4.77
2023-04-23T18:58:01.010Z,4.70
2023-04-23T19:00:48.385Z,4.73
2023-04-23T19:03:35.991Z,4.60
2023-04-23T19:06:23.421Z,4.73
2023-04-23T19:09:10.852Z,5.03
2023-04-23T19:11:58.536Z,5.23
2023-04-23T19:14:45.879Z,4.33
2023-04-23T19:17:34.922Z,4.77
2023-04-23T19:20:22.503Z,4.83
2023-04-23T19:23:09.940Z,4.60
2023-04-23T19:25:57.419Z,4.40
2023-04-23T19:28:44.779Z,5.30
2023-04-23T19:31:32.269Z,6.63
2023-04-23T19:34:19.711Z,6.80
2023-04-23T19:37:07.125Z,5.70
2023-04-23T19:39:54.516Z,5.90
2023-04-23T19:42:41.909Z,5.90
2023-04-23T19:45:29.985Z,5.70
2023-04-23T19:48:17.446Z,5.27
2023-04-23T19:51:04.901Z,5.17
2023-04-23T19:53:53.883Z,5.90
2023-04-23T19:56:41.224Z,5.67
2023-04-23T19:59:28.543Z,6.17
2023-04-23T20:02:16.727Z,5.73
2023-04-23T20:05:04.228Z,5.20
2023-04-23T20:07:52.458Z,4.73
2023-04-23T20:10:39.837Z,5.07
2023-04-23T20:13:27.240Z,5.37
2023-04-23T20:16:14.621Z,4.83
2023-04-23T20:19:04.784Z,5.20
2023-04-23T20:21:52.682Z,5.73
2023-04-23T20:24:40.393Z,6.13
2023-04-23T20:27:27.961Z,6.37
2023-04-23T20:30:16.468Z,5.20
2023-04-23T20:33:04.209Z,5.80
2023-04-23T20:35:51.573Z,5.83
2023-04-23T20:38:39.150Z,6.00
2023-04-23T20:41:26.960Z,5.27
2023-04-23T20:44:14.938Z,5.10
2023-04-23T20:47:05.626Z,5.37
2023-04-23T20:49:53.007Z,5.53
2023-04-23T20:52:40.562Z,5.10
2023-04-23T20:55:28.030Z,5.37
2023-04-23T20:58:15.493Z,5.00
2023-04-23T21:01:04.680Z,5.33
2023-04-23T21:03:53.391Z,5.60
2023-04-23T21:06:42.979Z,5.57
2023-04-23T21:09:30.346Z,5.37
2023-04-23T21:12:17.757Z,5.23
2023-04-23T21:15:05.287Z,5.30
2023-04-23T21:17:52.748Z,5.30
2023-04-23T21:20:40.314Z,5.37
2023-04-23T21:23:27.653Z,5.37
2023-04-23T21:26:15.078Z,6.10
2023-04-23T21:29:02.443Z,6.10
2023-04-23T21:31:51.956Z,6.10
2023-04-23T21:34:39.392Z,5.63
2023-04-23T21:37:26.789Z,6.47
2023-04-23T21:40:14.141Z,6.07
2023-04-23T21:43:01.930Z,6.07
2023-04-23T21:45:49.333Z,6.37
2023-04-23T21:48:36.734Z,5.00
2023-04-23T21:51:25.036Z,5.00
2023-04-23T21:54:13.770Z,5.40
2023-04-23T21:57:02.571Z,5.93
2023-04-23T21:59:49.999Z,5.47
2023-04-23T22:02:37.810Z,5.70
2023-04-23T22:05:25.295Z,6.50
2023-04-23T22:08:12.660Z,5.80
2023-04-23T22:11:00.072Z,5.80
2023-04-23T22:13:47.443Z,5.57
2023-04-23T22:16:35.065Z,5.87
2023-04-23T22:19:22.651Z,5.33
2023-04-23T22:22:09.996Z,5.27
2023-04-23T22:24:57.367Z,5.30
2023-04-23T22:27:44.737Z,4.40
2023-04-23T22:30:32.123Z,4.87
2023-04-23T22:33:19.546Z,4.60
2023-04-23T22:36:07.355Z,4.37
2023-04-23T22:38:55.702Z,4.37
2023-04-23T22:41:43.029Z,4.50
2023-04-23T22:44:30.378Z,4.40
2023-04-23T22:47:17.858Z,3.70
2023-04-23T22:50:06.027Z,4.20
2023-04-23T22:52:53.415Z,3.50
2023-04-23T22:55:40.765Z,3.70
2023-04-23T22:58:28.101Z,3.80
2023-04-23T23:01:16.702Z,3.70
2023-04-23T23:04:04.131Z,3.90
2023-04-23T23:06:51.633Z,3.43
2023-04-23T23:09:38.990Z,3.47
2023-04-23T23:12:26.371Z,3.27
2023-04-23T23:15:13.847Z,3.67
2023-04-23T23:18:02.002Z,3.47
2023-04-23T23:20:49.516Z,3.20
2023-04-23T23:23:36.932Z,3.43
2023-04-23T23:26:24.323Z,3.17
2023-04-23T23:29:11.761Z,3.10
2023-04-23T23:31:59.849Z,3.50
2023-04-23T23:34:47.241Z,3.33
2023-04-23T23:37:35.332Z,2.90
2023-04-23T23:40:22.754Z,3.27
2023-04-23T23:43:10.808Z,2.90
2023-04-23T23:45:58.260Z,3.10
2023-04-23T23:48:45.751Z,2.87
2023-04-23T23:51:33.154Z,3.17
2023-04-23T23:54:20.617Z,2.80
2023-04-23T23:57:07.999Z,3.30
2023-04-23T23:59:55.851Z,3.27
